createdAt,value
2023-05-23T00:00:15.520Z,70.00
2023-05-23T00:02:43.820Z,70.20
2023-05-23T00:05:10.700Z,70.60
2023-05-23T00:07:37.516Z,71.00
2023-05-23T00:10:04.898Z,71.20
2023-05-23T00:12:31.617Z,70.90
2023-05-23T00:14:58.334Z,71.20
2023-05-23T00:17:28.102Z,70.70
2023-05-23T00:19:56.104Z,71.20
2023-05-23T00:22:23.075Z,70.90
2023-05-23T00:24:49.849Z,71.00
2023-05-23T00:27:16.587Z,71.10
2023-05-23T00:29:43.291Z,71.70
2023-05-23T00:32:10.061Z,71.70
2023-05-23T00:34:37.710Z,71.30
2023-05-23T00:37:05.147Z,70.90
2023-05-23T00:39:31.927Z,71.20
2023-05-23T00:41:58.653Z,71.00
2023-05-23T00:44:26.201Z,70.90
2023-05-23T00:46:56.294Z,70.90
2023-05-23T00:49:24.354Z,70.70
2023-05-23T00:51:52.424Z,71.30
2023-05-23T00:54:24.442Z,71.60
2023-05-23T00:56:51.429Z,71.90
2023-05-23T00:59:18.432Z,71.80
2023-05-23T01:01:46.900Z,70.50
2023-05-23T01:04:14.781Z,71.60
2023-05-23T01:06:41.574Z,71.80
2023-05-23T01:09:09.679Z,72.30
2023-05-23T01:12:27.944Z,73.10
2023-05-23T01:15:06.523Z,73.10
2023-05-23T01:17:55.148Z,72.00
2023-05-23T01:20:24.173Z,72.30
2023-05-23T01:23:02.578Z,73.00
2023-05-23T01:26:13.223Z,73.20
2023-05-23T01:28:47.029Z,72.90
2023-05-23T01:31:15.919Z,72.70
2023-05-23T01:33:43.853Z,72.50
2023-05-23T01:36:14.273Z,74.60
2023-05-23T01:38:41.000Z,74.30
2023-05-23T01:41:07.756Z,73.70
2023-05-23T01:43:34.622Z,73.60
2023-05-23T01:46:02.212Z,73.40
2023-05-23T01:48:30.271Z,72.70
2023-05-23T01:50:58.863Z,72.90
2023-05-23T01:53:26.825Z,72.60
2023-05-23T01:55:54.192Z,72.20
2023-05-23T01:58:22.008Z,72.10
2023-05-23T02:00:48.914Z,72.40
2023-05-23T02:03:16.105Z,72.00
2023-05-23T02:05:43.314Z,71.90
2023-05-23T02:08:10.175Z,71.60
2023-05-23T02:10:38.218Z,72.30
2023-05-23T02:13:04.913Z,72.80
2023-05-23T02:15:31.708Z,73.70
2023-05-23T02:17:58.594Z,74.10
2023-05-23T02:20:25.921Z,74.30
2023-05-23T02:22:52.734Z,74.50
2023-05-23T02:25:19.569Z,74.50
2023-05-23T02:27:46.277Z,74.50
2023-05-23T02:30:13.467Z,74.50
2023-05-23T02:32:40.312Z,74.60
2023-05-23T02:35:09.033Z,73.80
2023-05-23T02:37:35.840Z,73.60
2023-05-23T02:40:07.530Z,73.50
2023-05-23T02:42:34.541Z,73.90
2023-05-23T02:45:01.697Z,73.80
2023-05-23T02:47:28.490Z,73.40
2023-05-23T02:49:55.389Z,72.70
2023-05-23T02:52:22.168Z,72.70
2023-05-23T02:54:48.999Z,73.00
2023-05-23T02:57:15.817Z,73.10
2023-05-23T02:59:42.695Z,73.50
2023-05-23T03:02:09.619Z,74.50
2023-05-23T03:04:38.149Z,74.50
2023-05-23T03:07:11.537Z,74.60
2023-05-23T03:09:44.081Z,75.00
2023-05-23T03:12:11.055Z,75.80
2023-05-23T03:14:38.064Z,76.30
2023-05-23T03:17:05.196Z,76.60
2023-05-23T03:19:34.155Z,76.50
2023-05-23T03:22:02.537Z,76.90
2023-05-23T03:24:29.438Z,76.90
2023-05-23T03:26:56.301Z,77.00
2023-05-23T03:29:23.905Z,77.10
2023-05-23T03:31:50.872Z,77.00
2023-05-23T03:34:18.015Z,77.00
2023-05-23T03:36:44.897Z,76.80
2023-05-23T03:39:12.435Z,76.60
2023-05-23T03:41:39.280Z,75.90
2023-05-23T03:44:06.363Z,75.80
2023-05-23T03:46:33.318Z,75.40
2023-05-23T03:49:00.452Z,75.50
2023-05-23T03:51:28.270Z,75.30
2023-05-23T03:53:55.390Z,75.50
2023-05-23T03:56:23.547Z,75.50
2023-05-23T03:58:50.952Z,75.70
2023-05-23T04:01:17.965Z,75.70
2023-05-23T04:03:47.085Z,75.60
2023-05-23T04:06:17.265Z,76.00
2023-05-23T04:08:46.293Z,75.90
2023-05-23T04:11:13.166Z,75.80
2023-05-23T04:13:42.786Z,76.00
2023-05-23T04:16:11.058Z,75.90
2023-05-23T04:18:39.303Z,75.10
2023-05-23T04:21:07.345Z,75.40
2023-05-23T04:23:38.492Z,75.50
2023-05-23T04:26:06.777Z,75.70
2023-05-23T04:28:35.923Z,76.20
2023-05-23T04:31:03.234Z,75.90
2023-05-23T04:33:34.234Z,76.00
2023-05-23T04:36:02.629Z,75.80
2023-05-23T04:38:29.415Z,75.50
2023-05-23T04:40:58.006Z,75.40
2023-05-23T04:43:46.040Z,75.20
2023-05-23T04:46:26.849Z,75.40
2023-05-23T04:49:17.103Z,74.20
2023-05-23T04:51:44.187Z,74.20
2023-05-23T04:54:21.495Z,73.80
2023-05-23T04:56:48.210Z,73.30
2023-05-23T04:59:17.882Z,73.30
2023-05-23T05:01:44.807Z,73.20
2023-05-23T05:04:13.009Z,73.30
2023-05-23T05:06:41.319Z,73.00
2023-05-23T05:09:09.210Z,72.80
2023-05-23T05:11:35.985Z,72.60
2023-05-23T05:14:03.290Z,72.10
2023-05-23T05:16:30.767Z,72.20
2023-05-23T05:18:57.732Z,72.40
2023-05-23T05:21:24.479Z,72.40
2023-05-23T05:23:51.525Z,72.70
2023-05-23T05:26:18.478Z,73.10
2023-05-23T05:28:45.278Z,73.20
2023-05-23T05:31:15.290Z,73.20
2023-05-23T05:33:45.766Z,74.50
2023-05-23T05:36:14.454Z,75.10
2023-05-23T05:38:41.774Z,75.10
2023-05-23T05:41:09.415Z,74.60
2023-05-23T05:43:39.978Z,74.30
2023-05-23T05:46:06.770Z,74.20
2023-05-23T05:48:34.173Z,73.90
2023-05-23T05:51:05.454Z,73.80
2023-05-23T05:53:33.717Z,73.50
2023-05-23T05:56:02.724Z,74.20
2023-05-23T05:58:30.741Z,74.30
2023-05-23T06:01:03.646Z,74.20
2023-05-23T06:03:30.603Z,73.30
2023-05-23T06:05:58.266Z,73.60
2023-05-23T06:08:25.350Z,72.60
2023-05-23T06:10:52.214Z,73.00
2023-05-23T06:13:18.949Z,72.90
2023-05-23T06:15:51.097Z,72.70
2023-05-23T06:18:17.886Z,72.30
2023-05-23T06:20:45.038Z,72.20
2023-05-23T06:23:15.461Z,72.30
2023-05-23T06:25:42.536Z,71.80
2023-05-23T06:28:09.308Z,72.60
2023-05-23T06:30:38.027Z,72.50
2023-05-23T06:33:05.352Z,71.90
2023-05-23T06:35:32.152Z,71.50
2023-05-23T06:38:01.134Z,71.60
2023-05-23T06:40:27.908Z,70.00
2023-05-23T06:42:55.731Z,70.40
2023-05-23T06:45:38.929Z,70.80
2023-05-23T06:48:05.940Z,71.10
2023-05-23T06:50:34.745Z,71.10
2023-05-23T06:53:01.684Z,71.20
2023-05-23T06:55:28.463Z,70.30
2023-05-23T06:57:57.454Z,70.60
2023-05-23T07:00:24.747Z,71.00
2023-05-23T07:03:07.073Z,71.30
2023-05-23T07:05:34.488Z,71.60
2023-05-23T07:08:01.642Z,72.00
2023-05-23T07:10:28.512Z,72.90
2023-05-23T07:13:02.275Z,73.40
2023-05-23T07:15:29.793Z,72.90
2023-05-23T07:18:06.111Z,72.80
2023-05-23T07:20:34.099Z,72.60
2023-05-23T07:23:09.702Z,72.30
2023-05-23T07:25:40.336Z,72.20
2023-05-23T07:28:15.643Z,72.80
2023-05-23T07:30:42.998Z,72.00
2023-05-23T07:33:09.845Z,72.40
2023-05-23T07:35:37.543Z,72.40
2023-05-23T07:38:05.359Z,72.40
2023-05-23T07:40:32.267Z,72.20
2023-05-23T07:43:00.149Z,71.90
2023-05-23T07:45:26.957Z,71.60
2023-05-23T07:47:54.066Z,72.00
2023-05-23T07:50:20.820Z,72.10
2023-05-23T07:52:51.235Z,72.50
2023-05-23T07:55:24.317Z,72.90
2023-05-23T07:57:56.399Z,73.30
2023-05-23T08:00:24.628Z,72.70
2023-05-23T08:02:57.041Z,73.00
2023-05-23T08:05:30.030Z,72.50
2023-05-23T08:07:57.826Z,73.30
2023-05-23T08:10:28.177Z,73.00
2023-05-23T08:13:00.518Z,73.40
2023-05-23T08:15:31.825Z,74.20
2023-05-23T08:18:07.643Z,74.50
2023-05-23T08:20:34.427Z,74.60
2023-05-23T08:23:01.929Z,73.50
2023-05-23T08:25:32.380Z,72.60
2023-05-23T08:28:01.115Z,72.90
2023-05-23T08:30:42.789Z,72.70
2023-05-23T08:33:09.841Z,72.60
2023-05-23T08:35:38.799Z,72.00
2023-05-23T08:38:09.661Z,71.70
2023-05-23T08:40:48.123Z,71.40
2023-05-23T08:43:15.143Z,71.20
2023-05-23T08:45:42.554Z,71.00
2023-05-23T08:48:10.191Z,71.20
2023-05-23T08:50:44.210Z,69.80
2023-05-23T08:53:20.129Z,68.50
2023-05-23T08:55:55.686Z,68.90
2023-05-23T08:58:29.247Z,67.30
2023-05-23T09:00:57.649Z,68.20
2023-05-23T09:03:27.411Z,67.60
2023-05-23T09:06:21.965Z,68.00
2023-05-23T09:08:49.184Z,67.90
2023-05-23T09:11:18.550Z,67.70
2023-05-23T09:13:45.836Z,68.20
2023-05-23T09:16:20.079Z,67.50
2023-05-23T09:18:50.973Z,67.20
2023-05-23T09:21:20.779Z,67.00
2023-05-23T09:23:56.084Z,66.40
2023-05-23T09:26:22.924Z,65.90
2023-05-23T09:28:49.790Z,67.50
2023-05-23T09:31:16.575Z,67.50
2023-05-23T09:33:50.245Z,67.30
2023-05-23T09:36:19.234Z,66.90
2023-05-23T09:38:48.872Z,68.40
2023-05-23T09:41:15.779Z,69.00
2023-05-23T09:43:53.391Z,71.50
2023-05-23T09:46:22.050Z,72.20
2023-05-23T09:48:52.047Z,69.60
2023-05-23T09:51:21.612Z,70.00
2023-05-23T09:53:49.131Z,68.60
2023-05-23T09:56:19.711Z,69.10
2023-05-23T09:58:50.787Z,68.30
2023-05-23T10:01:17.922Z,67.70
2023-05-23T10:03:48.879Z,68.50
2023-05-23T10:06:35.141Z,68.50
2023-05-23T10:09:06.108Z,69.10
2023-05-23T10:11:35.670Z,68.60
2023-05-23T10:14:07.601Z,67.80
2023-05-23T10:16:39.860Z,67.80
2023-05-23T10:19:38.582Z,68.30
2023-05-23T10:22:09.364Z,67.40
2023-05-23T10:24:36.776Z,64.70
2023-05-23T10:27:03.854Z,63.50
2023-05-23T10:29:31.373Z,63.60
2023-05-23T10:31:58.599Z,61.60
2023-05-23T10:34:34.616Z,61.10
2023-05-23T10:37:06.303Z,61.10
2023-05-23T10:39:46.457Z,62.10
2023-05-23T10:42:22.597Z,61.90
2023-05-23T10:44:49.348Z,63.80
2023-05-23T10:47:29.183Z,64.70
2023-05-23T10:49:55.998Z,63.40
2023-05-23T10:52:26.548Z,66.00
2023-05-23T10:54:54.744Z,65.20
2023-05-23T10:57:25.472Z,64.60
2023-05-23T10:59:52.305Z,64.30
2023-05-23T11:02:26.275Z,63.80
2023-05-23T11:05:22.715Z,63.70
2023-05-23T11:08:09.790Z,65.90
2023-05-23T11:10:56.143Z,66.80
2023-05-23T11:13:23.399Z,64.90
2023-05-23T11:15:50.828Z,65.20
2023-05-23T11:18:26.507Z,65.40
2023-05-23T11:20:54.659Z,66.90
2023-05-23T11:23:22.170Z,67.50
2023-05-23T11:25:53.829Z,68.20
2023-05-23T11:28:20.954Z,63.50
2023-05-23T11:30:49.610Z,63.00
2023-05-23T11:33:18.207Z,64.30
2023-05-23T11:35:49.601Z,65.20
2023-05-23T11:38:17.324Z,65.00
2023-05-23T11:40:46.334Z,65.60
2023-05-23T11:43:17.780Z,66.80
2023-05-23T11:45:46.759Z,69.00
2023-05-23T11:48:16.459Z,69.60
2023-05-23T11:50:51.315Z,70.90
2023-05-23T11:53:21.542Z,73.30
2023-05-23T11:55:54.361Z,75.00
2023-05-23T11:58:22.922Z,75.20
2023-05-23T12:00:49.896Z,75.40
2023-05-23T12:03:17.033Z,74.80
2023-05-23T12:05:45.475Z,75.10
2023-05-23T12:08:13.824Z,75.90
2023-05-23T12:10:51.294Z,74.10
2023-05-23T12:13:18.422Z,73.90
2023-05-23T12:15:45.249Z,73.40
2023-05-23T12:18:12.863Z,72.10
2023-05-23T12:20:41.931Z,70.60
2023-05-23T12:23:09.103Z,68.40
2023-05-23T12:25:42.516Z,68.60
2023-05-23T12:28:13.614Z,68.70
2023-05-23T12:30:43.491Z,69.90
2023-05-23T12:33:11.933Z,68.20
2023-05-23T12:35:43.025Z,68.10
2023-05-23T12:38:09.920Z,67.20
2023-05-23T12:40:36.648Z,67.50
2023-05-23T12:43:03.383Z,66.10
2023-05-23T12:45:34.990Z,65.20
2023-05-23T12:48:02.453Z,63.10
2023-05-23T12:50:29.768Z,62.70
2023-05-23T12:52:56.952Z,63.30
2023-05-23T12:55:23.674Z,62.80
2023-05-23T12:57:50.868Z,63.10
2023-05-23T13:00:19.312Z,64.10
2023-05-23T13:02:46.472Z,65.10
2023-05-23T13:05:13.305Z,64.70
2023-05-23T13:07:40.060Z,65.80
2023-05-23T13:10:07.380Z,66.00
2023-05-23T13:12:34.721Z,66.20
2023-05-23T13:15:01.521Z,67.40
2023-05-23T13:17:28.412Z,67.10
2023-05-23T13:19:55.139Z,67.60
2023-05-23T13:22:21.827Z,67.10
2023-05-23T13:24:48.527Z,66.60
2023-05-23T13:27:15.249Z,67.40
2023-05-23T13:29:42.232Z,67.50
2023-05-23T13:32:09.069Z,68.10
2023-05-23T13:34:37.472Z,68.90
2023-05-23T13:37:05.559Z,69.20
2023-05-23T13:39:32.280Z,70.30
2023-05-23T13:41:59.066Z,71.10
2023-05-23T13:44:25.848Z,71.70
2023-05-23T13:46:52.785Z,72.30
2023-05-23T13:49:19.561Z,72.10
2023-05-23T13:51:46.409Z,73.80
2023-05-23T13:54:13.835Z,74.20
2023-05-23T13:56:41.275Z,75.40
2023-05-23T13:59:08.002Z,80.10
2023-05-23T14:01:34.797Z,83.20
2023-05-23T14:04:01.650Z,83.70
2023-05-23T14:06:28.346Z,82.80
2023-05-23T14:08:55.839Z,83.70
2023-05-23T14:11:22.583Z,84.90
2023-05-23T14:13:49.291Z,83.90
2023-05-23T14:16:17.076Z,83.50
2023-05-23T14:18:45.185Z,82.00
2023-05-23T14:21:12.046Z,81.70
2023-05-23T14:23:38.812Z,81.00
2023-05-23T14:26:05.832Z,80.20
2023-05-23T14:28:32.518Z,79.80
2023-05-23T14:30:59.291Z,78.70
2023-05-23T14:33:26.268Z,79.60
2023-05-23T14:35:53.196Z,79.00
2023-05-23T14:38:20.172Z,79.90
2023-05-23T14:40:47.286Z,80.20
2023-05-23T14:43:14.157Z,79.70
2023-05-23T14:45:41.147Z,80.30
2023-05-23T14:48:09.405Z,79.80
2023-05-23T14:50:36.497Z,78.30
2023-05-23T14:53:03.346Z,80.20
2023-05-23T14:55:30.051Z,79.80
2023-05-23T14:57:57.786Z,79.50
2023-05-23T15:00:24.965Z,79.20
2023-05-23T15:02:52.136Z,79.20
2023-05-23T15:05:18.928Z,79.10
2023-05-23T15:07:46.266Z,80.50
2023-05-23T15:10:13.012Z,82.10
2023-05-23T15:12:39.720Z,82.40
2023-05-23T15:15:06.929Z,83.40
2023-05-23T15:17:34.158Z,83.50
2023-05-23T15:20:01.883Z,84.10
2023-05-23T15:22:38.666Z,83.70
2023-05-23T15:25:08.229Z,83.50
2023-05-23T15:27:35.181Z,83.30
2023-05-23T15:30:03.212Z,84.30
2023-05-23T15:32:30.088Z,84.30
2023-05-23T15:34:56.875Z,83.40
2023-05-23T15:37:23.583Z,83.00
2023-05-23T15:39:50.311Z,81.00
2023-05-23T15:42:16.992Z,81.60
2023-05-23T15:44:43.750Z,82.20
2023-05-23T15:47:11.214Z,81.30
2023-05-23T15:49:37.946Z,81.00
2023-05-23T15:52:04.897Z,80.40
2023-05-23T15:54:31.611Z,81.30
2023-05-23T15:56:58.317Z,81.30
2023-05-23T15:59:25.010Z,79.70
2023-05-23T16:01:51.782Z,79.50
2023-05-23T16:04:18.633Z,79.40
2023-05-23T16:06:45.440Z,77.70
2023-05-23T16:09:12.186Z,78.70
2023-05-23T16:11:38.955Z,79.00
2023-05-23T16:14:06.391Z,80.00
2023-05-23T16:16:33.185Z,78.80
2023-05-23T16:19:00.218Z,78.90
2023-05-23T16:21:26.999Z,77.10
2023-05-23T16:23:53.756Z,78.70
2023-05-23T16:26:20.926Z,78.80
2023-05-23T16:28:47.706Z,77.90
2023-05-23T16:31:15.657Z,73.50
2023-05-23T16:33:43.315Z,72.10
2023-05-23T16:36:10.041Z,73.40
2023-05-23T16:38:36.746Z,73.00
2023-05-23T16:41:03.617Z,72.00
2023-05-23T16:43:30.357Z,70.00
2023-05-23T16:45:57.139Z,70.10
2023-05-23T16:48:23.957Z,70.70
2023-05-23T16:50:50.760Z,71.80
2023-05-23T16:53:17.556Z,73.30
2023-05-23T16:55:45.924Z,74.90
2023-05-23T16:58:12.724Z,75.30
2023-05-23T17:00:39.616Z,75.90
2023-05-23T17:03:06.686Z,76.10
2023-05-23T17:05:34.382Z,75.80
2023-05-23T17:08:01.579Z,76.90
2023-05-23T17:10:28.470Z,77.80
2023-05-23T17:12:55.216Z,78.20
2023-05-23T17:15:47.787Z,78.50
2023-05-23T17:18:14.539Z,78.40
2023-05-23T17:20:41.243Z,78.00
2023-05-23T17:23:08.013Z,77.80
2023-05-23T17:25:34.724Z,77.90
2023-05-23T17:28:01.413Z,77.10
2023-05-23T17:30:28.285Z,76.40
2023-05-23T17:32:55.070Z,75.30
2023-05-23T17:35:23.316Z,74.90
2023-05-23T17:37:50.379Z,74.50
2023-05-23T17:40:17.556Z,74.40
2023-05-23T17:42:44.889Z,74.60
2023-05-23T17:45:11.865Z,75.00
2023-05-23T17:47:39.228Z,73.70
2023-05-23T17:50:07.222Z,73.50
2023-05-23T17:52:34.534Z,73.80
2023-05-23T17:55:01.769Z,72.60
2023-05-23T17:57:30.497Z,72.50
2023-05-23T17:59:57.666Z,71.30
2023-05-23T18:02:24.472Z,71.50
2023-05-23T18:04:51.540Z,73.20
2023-05-23T18:07:21.285Z,74.00
2023-05-23T18:09:48.610Z,74.20
2023-05-23T18:12:16.441Z,73.90
2023-05-23T18:14:43.652Z,74.10
2023-05-23T18:17:10.575Z,74.60
2023-05-23T18:19:37.550Z,74.70
2023-05-23T18:22:04.542Z,75.10
2023-05-23T18:24:31.283Z,75.40
2023-05-23T18:26:58.343Z,76.00
2023-05-23T18:29:25.087Z,75.60
2023-05-23T18:31:51.791Z,75.80
2023-05-23T18:34:18.684Z,76.40
2023-05-23T18:36:45.669Z,76.40
2023-05-23T18:39:12.571Z,76.40
2023-05-23T18:41:39.788Z,76.80
2023-05-23T18:44:06.484Z,76.60
2023-05-23T18:46:33.283Z,76.70
2023-05-23T18:49:00.150Z,76.30
2023-05-23T18:51:26.849Z,77.00
2023-05-23T18:53:53.569Z,76.90
2023-05-23T18:56:21.643Z,76.80
2023-05-23T18:58:49.891Z,77.70
2023-05-23T19:01:16.943Z,77.10
2023-05-23T19:03:45.678Z,77.40
2023-05-23T19:06:12.529Z,77.70
2023-05-23T19:08:40.884Z,77.60
2023-05-23T19:11:07.717Z,77.50
2023-05-23T19:13:34.552Z,77.30
2023-05-23T19:16:01.934Z,77.60
2023-05-23T19:18:28.740Z,77.50
2023-05-23T19:20:56.451Z,77.50
2023-05-23T19:23:23.238Z,77.90
2023-05-23T19:25:49.949Z,77.50
2023-05-23T19:28:17.005Z,76.50
2023-05-23T19:30:44.393Z,77.00
2023-05-23T19:33:11.494Z,77.50
2023-05-23T19:35:38.487Z,77.50
2023-05-23T19:38:05.742Z,77.50
2023-05-23T19:40:32.463Z,77.40
2023-05-23T19:42:59.172Z,77.30
2023-05-23T19:45:25.966Z,76.60
2023-05-23T19:47:52.667Z,77.20
2023-05-23T19:50:19.497Z,77.20
2023-05-23T19:52:46.202Z,77.70
2023-05-23T19:55:14.197Z,77.50
2023-05-23T19:57:41.911Z,78.50
2023-05-23T20:00:10.458Z,79.00
2023-05-23T20:02:37.369Z,79.90
2023-05-23T20:05:04.389Z,80.40
2023-05-23T20:07:31.237Z,80.60
2023-05-23T20:09:58.067Z,80.70
2023-05-23T20:12:25.084Z,80.50
2023-05-23T20:14:51.809Z,80.50
2023-05-23T20:17:18.586Z,80.70
2023-05-23T20:19:45.309Z,80.70
2023-05-23T20:22:12.017Z,80.50
2023-05-23T20:24:38.764Z,80.60
2023-05-23T20:27:06.726Z,80.50
2023-05-23T20:29:34.951Z,80.30
2023-05-23T20:32:02.187Z,80.30
2023-05-23T20:34:28.926Z,80.10
2023-05-23T20:36:55.821Z,80.40
2023-05-23T20:39:23.968Z,79.60
2023-05-23T20:41:50.767Z,80.20
2023-05-23T20:44:20.499Z,80.70
2023-05-23T20:46:47.538Z,81.60
2023-05-23T20:49:15.689Z,81.50
2023-05-23T20:51:43.280Z,81.90
2023-05-23T20:54:10.038Z,82.00
2023-05-23T20:56:36.860Z,83.10
2023-05-23T20:59:03.566Z,83.00
2023-05-23T21:01:30.433Z,82.70
2023-05-23T21:03:57.261Z,82.30
2023-05-23T21:06:23.949Z,81.80
2023-05-23T21:08:50.686Z,81.60
2023-05-23T21:11:17.377Z,81.60
2023-05-23T21:13:44.637Z,81.30
2023-05-23T21:16:14.301Z,82.30
2023-05-23T21:18:41.090Z,82.80
2023-05-23T21:21:07.832Z,83.00
2023-05-23T21:23:34.565Z,82.80
2023-05-23T21:26:01.341Z,82.20
2023-05-23T21:28:28.140Z,81.80
2023-05-23T21:30:55.382Z,81.10
2023-05-23T21:33:22.310Z,81.70
2023-05-23T21:35:49.263Z,81.50
2023-05-23T21:38:16.044Z,82.10
2023-05-23T21:40:43.002Z,83.10
2023-05-23T21:43:09.915Z,83.40
2023-05-23T21:45:36.613Z,82.50
2023-05-23T21:48:03.408Z,82.40
2023-05-23T21:50:30.265Z,82.20
2023-05-23T21:52:56.987Z,82.00
2023-05-23T21:55:23.882Z,81.90
2023-05-23T21:57:50.738Z,81.90
2023-05-23T22:00:19.705Z,82.40
2023-05-23T22:02:47.290Z,82.00
2023-05-23T22:05:14.170Z,82.10
2023-05-23T22:07:40.923Z,82.40
2023-05-23T22:10:08.161Z,82.40
2023-05-23T22:12:34.920Z,82.60
2023-05-23T22:15:01.667Z,82.40
2023-05-23T22:17:29.577Z,82.60
2023-05-23T22:19:57.987Z,82.60
2023-05-23T22:22:24.707Z,82.50
2023-05-23T22:24:51.798Z,82.70
2023-05-23T22:27:18.588Z,82.60
2023-05-23T22:29:45.452Z,82.50
2023-05-23T22:32:12.182Z,81.10
2023-05-23T22:34:38.918Z,80.50
2023-05-23T22:37:05.706Z,80.40
2023-05-23T22:39:32.465Z,80.40
2023-05-23T22:41:59.219Z,80.00
2023-05-23T22:44:26.173Z,80.30
2023-05-23T22:46:52.961Z,80.60
2023-05-23T22:49:22.211Z,80.80
2023-05-23T22:51:48.987Z,80.60
2023-05-23T22:54:15.691Z,80.60
2023-05-23T22:56:42.541Z,80.40
2023-05-23T22:59:09.331Z,80.50
2023-05-23T23:01:36.412Z,80.70
2023-05-23T23:04:03.216Z,80.70
2023-05-23T23:06:29.962Z,80.90
2023-05-23T23:08:56.769Z,80.90
2023-05-23T23:11:23.518Z,80.80
2023-05-23T23:13:50.293Z,79.90
2023-05-23T23:16:19.439Z,80.10
2023-05-23T23:18:47.083Z,79.90
2023-05-23T23:21:13.871Z,80.20
2023-05-23T23:23:40.880Z,80.40
2023-05-23T23:26:07.635Z,80.30
2023-05-23T23:28:34.417Z,80.50
2023-05-23T23:31:01.244Z,80.40
2023-05-23T23:33:28.100Z,80.30
2023-05-23T23:35:54.881Z,80.60
2023-05-23T23:38:21.631Z,80.10
2023-05-23T23:40:48.349Z,80.70
2023-05-23T23:43:15.166Z,80.40
2023-05-23T23:45:41.971Z,80.50
2023-05-23T23:48:08.805Z,80.30
2023-05-23T23:50:35.718Z,80.50
2023-05-23T23:53:02.432Z,80.80
2023-05-23T23:55:29.131Z,81.20
2023-05-23T23:57:56.109Z,80.90
